sensor_id;sensor_type;location;lat;lon;timestamp;P1;durP1;ratioP1;P2;durP2;ratioP2
14994;SDS011;7593;49.006;8.372;2023-04-03T00:00:31;2.70;;;1.80;;
14994;SDS011;7593;49.006;8.372;2023-04-03T00:02:58;2.13;;;1.70;;
14994;SDS011;7593;49.006;8.372;2023-04-03T00:05:25;2.47;;;1.70;;
14994;SDS011;7593;49.006;8.372;2023-04-03T00:07:52;2.30;;;1.93;;
14994;SDS011;7593;49.006;8.372;2023-04-03T00:10:20;2.10;;;1.90;;
14994;SDS011;7593;49.006;8.372;2023-04-03T00:12:47;2.00;;;1.80;;
14994;SDS011;7593;49.006;8.372;2023-04-03T00:15:14;3.83;;;2.10;;
14994;SDS011;7593;49.006;8.372;2023-04-03T00:17:41;5.10;;;2.43;;
14994;SDS011;7593;49.006;8.372;2023-04-03T00:20:08;3.27;;;2.73;;
14994;SDS011;7593;49.006;8.372;2023-04-03T00:22:35;2.13;;;1.70;;
14994;SDS011;7593;49.006;8.372;2023-04-03T00:25:02;2.73;;;1.90;;
14994;SDS011;7593;49.006;8.372;2023-04-03T00:27:30;2.23;;;1.70;;
14994;SDS011;7593;49.006;8.372;2023-04-03T00:29:57;3.60;;;2.40;;
14994;SDS011;7593;49.006;8.372;2023-04-03T00:32:24;1.97;;;1.53;;
14994;SDS011;7593;49.006;8.372;2023-04-03T00:34:51;2.73;;;2.10;;
14994;SDS011;7593;49.006;8.372;2023-04-03T00:37:21;2.53;;;1.90;;
14994;SDS011;7593;49.006;8.372;2023-04-03T00:39:47;4.27;;;1.70;;
14994;SDS011;7593;49.006;8.372;2023-04-03T00:42:14;2.50;;;1.63;;
14994;SDS011;7593;49.006;8.372;2023-04-03T00:47:46;2.40;;;1.70;;
14994;SDS011;7593;49.006;8.372;2023-04-03T00:50:13;2.07;;;1.60;;
14994;SDS011;7593;49.006;8.372;2023-04-03T00:52:39;1.67;;;1.57;;
14994;SDS011;7593;49.006;8.372;2023-04-03T00:55:07;2.30;;;1.73;;
14994;SDS011;7593;49.006;8.372;2023-04-03T00:57:35;1.70;;;1.30;;
14994;SDS011;7593;49.006;8.372;2023-04-03T01:00:04;1.70;;;1.60;;
14994;SDS011;7593;49.006;8.372;2023-04-03T01:02:35;2.33;;;1.53;;
14994;SDS011;7593;49.006;8.372;2023-04-03T01:05:04;3.53;;;1.80;;
14994;SDS011;7593;49.006;8.372;2023-04-03T01:07:31;3.00;;;1.60;;
14994;SDS011;7593;49.006;8.372;2023-04-03T01:10:03;4.73;;;2.00;;
14994;SDS011;7593;49.006;8.372;2023-04-03T01:12:32;2.07;;;1.50;;
14994;SDS011;7593;49.006;8.372;2023-04-03T01:15:02;2.17;;;1.50;;
14994;SDS011;7593;49.006;8.372;2023-04-03T01:17:34;3.40;;;1.97;;
14994;SDS011;7593;49.006;8.372;2023-04-03T01:20:14;2.77;;;2.00;;
14994;SDS011;7593;49.006;8.372;2023-04-03T01:22:56;1.90;;;1.70;;
14994;SDS011;7593;49.006;8.372;2023-04-03T01:25:29;3.00;;;1.77;;
14994;SDS011;7593;49.006;8.372;2023-04-03T01:27:55;2.43;;;1.60;;
14994;SDS011;7593;49.006;8.372;2023-04-03T01:30:23;2.10;;;1.57;;
14994;SDS011;7593;49.006;8.372;2023-04-03T01:32:55;2.57;;;1.80;;
14994;SDS011;7593;49.006;8.372;2023-04-03T01:35:22;2.10;;;1.70;;
14994;SDS011;7593;49.006;8.372;2023-04-03T01:37:49;2.07;;;1.70;;
14994;SDS011;7593;49.006;8.372;2023-04-03T01:40:16;2.03;;;1.70;;
14994;SDS011;7593;49.006;8.372;2023-04-03T01:42:43;3.20;;;1.97;;
14994;SDS011;7593;49.006;8.372;2023-04-03T01:45:10;3.07;;;1.70;;
14994;SDS011;7593;49.006;8.372;2023-04-03T01:47:37;1.90;;;1.60;;
14994;SDS011;7593;49.006;8.372;2023-04-03T01:50:05;2.80;;;1.77;;
14994;SDS011;7593;49.006;8.372;2023-04-03T01:52:32;2.50;;;1.70;;
14994;SDS011;7593;49.006;8.372;2023-04-03T01:54:59;3.43;;;1.70;;
14994;SDS011;7593;49.006;8.372;2023-04-03T01:57:26;2.90;;;1.67;;
14994;SDS011;7593;49.006;8.372;2023-04-03T01:59:53;2.80;;;1.60;;
14994;SDS011;7593;49.006;8.372;2023-04-03T02:02:19;2.20;;;1.60;;
14994;SDS011;7593;49.006;8.372;2023-04-03T02:04:46;2.10;;;1.80;;
14994;SDS011;7593;49.006;8.372;2023-04-03T02:07:14;2.67;;;1.60;;
14994;SDS011;7593;49.006;8.372;2023-04-03T02:09:41;3.33;;;1.93;;
14994;SDS011;7593;49.006;8.372;2023-04-03T02:12:08;2.50;;;1.80;;
14994;SDS011;7593;49.006;8.372;2023-04-03T02:14:34;2.47;;;1.90;;
14994;SDS011;7593;49.006;8.372;2023-04-03T02:17:02;2.50;;;2.00;;
14994;SDS011;7593;49.006;8.372;2023-04-03T02:19:33;2.53;;;1.87;;
14994;SDS011;7593;49.006;8.372;2023-04-03T02:22:00;3.93;;;1.97;;
14994;SDS011;7593;49.006;8.372;2023-04-03T02:24:28;3.50;;;1.97;;
14994;SDS011;7593;49.006;8.372;2023-04-03T02:26:55;2.30;;;1.93;;
14994;SDS011;7593;49.006;8.372;2023-04-03T02:29:22;2.53;;;1.73;;
14994;SDS011;7593;49.006;8.372;2023-04-03T02:31:49;2.43;;;1.90;;
14994;SDS011;7593;49.006;8.372;2023-04-03T02:34:16;2.17;;;1.80;;
14994;SDS011;7593;49.006;8.372;2023-04-03T02:36:43;3.43;;;2.30;;
14994;SDS011;7593;49.006;8.372;2023-04-03T02:39:10;3.20;;;1.80;;
14994;SDS011;7593;49.006;8.372;2023-04-03T02:41:38;3.03;;;2.03;;
14994;SDS011;7593;49.006;8.372;2023-04-03T02:44:05;2.87;;;2.00;;
14994;SDS011;7593;49.006;8.372;2023-04-03T02:46:33;3.13;;;1.87;;
14994;SDS011;7593;49.006;8.372;2023-04-03T02:49:00;2.50;;;2.00;;
14994;SDS011;7593;49.006;8.372;2023-04-03T02:51:26;3.30;;;2.10;;
14994;SDS011;7593;49.006;8.372;2023-04-03T02:53:53;2.07;;;1.77;;
14994;SDS011;7593;49.006;8.372;2023-04-03T02:56:20;2.37;;;2.00;;
14994;SDS011;7593;49.006;8.372;2023-04-03T02:58:48;2.63;;;1.97;;
14994;SDS011;7593;49.006;8.372;2023-04-03T03:01:15;4.23;;;2.20;;
14994;SDS011;7593;49.006;8.372;2023-04-03T03:03:41;3.50;;;1.90;;
14994;SDS011;7593;49.006;8.372;2023-04-03T03:06:09;2.37;;;1.93;;
14994;SDS011;7593;49.006;8.372;2023-04-03T03:08:37;2.77;;;2.00;;
14994;SDS011;7593;49.006;8.372;2023-04-03T03:11:04;3.07;;;2.00;;
14994;SDS011;7593;49.006;8.372;2023-04-03T03:13:31;3.27;;;2.00;;
14994;SDS011;7593;49.006;8.372;2023-04-03T03:16:00;2.10;;;1.90;;
14994;SDS011;7593;49.006;8.372;2023-04-03T03:18:27;5.17;;;2.57;;
14994;SDS011;7593;49.006;8.372;2023-04-03T03:20:54;2.27;;;1.90;;
14994;SDS011;7593;49.006;8.372;2023-04-03T03:23:23;3.63;;;2.10;;
14994;SDS011;7593;49.006;8.372;2023-04-03T03:25:54;3.23;;;2.17;;
14994;SDS011;7593;49.006;8.372;2023-04-03T03:28:21;3.97;;;1.90;;
14994;SDS011;7593;49.006;8.372;2023-04-03T03:30:47;4.47;;;2.20;;
14994;SDS011;7593;49.006;8.372;2023-04-03T03:33:15;3.20;;;2.10;;
14994;SDS011;7593;49.006;8.372;2023-04-03T03:35:43;2.70;;;2.10;;
14994;SDS011;7593;49.006;8.372;2023-04-03T03:38:10;3.00;;;2.03;;
14994;SDS011;7593;49.006;8.372;2023-04-03T03:40:39;3.80;;;1.80;;
14994;SDS011;7593;49.006;8.372;2023-04-03T03:43:06;3.93;;;2.20;;
14994;SDS011;7593;49.006;8.372;2023-04-03T03:45:33;2.90;;;1.93;;
14994;SDS011;7593;49.006;8.372;2023-04-03T03:48:00;3.80;;;1.93;;
14994;SDS011;7593;49.006;8.372;2023-04-03T03:50:28;3.13;;;2.10;;
14994;SDS011;7593;49.006;8.372;2023-04-03T03:52:55;3.93;;;2.30;;
14994;SDS011;7593;49.006;8.372;2023-04-03T03:55:22;3.70;;;2.10;;
14994;SDS011;7593;49.006;8.372;2023-04-03T03:57:49;4.07;;;1.93;;
14994;SDS011;7593;49.006;8.372;2023-04-03T04:00:16;2.60;;;1.80;;
14994;SDS011;7593;49.006;8.372;2023-04-03T04:02:43;2.60;;;2.10;;
14994;SDS011;7593;49.006;8.372;2023-04-03T04:05:10;2.73;;;2.00;;
14994;SDS011;7593;49.006;8.372;2023-04-03T04:07:38;3.03;;;1.80;;
14994;SDS011;7593;49.006;8.372;2023-04-03T04:10:05;3.47;;;2.10;;
14994;SDS011;7593;49.006;8.372;2023-04-03T04:12:33;3.63;;;2.10;;
14994;SDS011;7593;49.006;8.372;2023-04-03T04:15:00;3.90;;;2.30;;
14994;SDS011;7593;49.006;8.372;2023-04-03T04:17:27;2.43;;;2.00;;
14994;SDS011;7593;49.006;8.372;2023-04-03T04:19:54;3.43;;;2.10;;
14994;SDS011;7593;49.006;8.372;2023-04-03T04:22:21;3.03;;;2.30;;
14994;SDS011;7593;49.006;8.372;2023-04-03T04:24:49;4.40;;;2.60;;
14994;SDS011;7593;49.006;8.372;2023-04-03T04:27:16;2.40;;;2.00;;
14994;SDS011;7593;49.006;8.372;2023-04-03T04:29:42;3.57;;;2.17;;
14994;SDS011;7593;49.006;8.372;2023-04-03T04:32:09;4.83;;;2.17;;
14994;SDS011;7593;49.006;8.372;2023-04-03T04:34:36;2.20;;;2.00;;
14994;SDS011;7593;49.006;8.372;2023-04-03T04:37:03;2.33;;;2.13;;
14994;SDS011;7593;49.006;8.372;2023-04-03T04:39:30;3.77;;;2.30;;
14994;SDS011;7593;49.006;8.372;2023-04-03T04:41:58;4.57;;;4.00;;
14994;SDS011;7593;49.006;8.372;2023-04-03T04:44:25;2.53;;;2.10;;
14994;SDS011;7593;49.006;8.372;2023-04-03T04:46:51;4.67;;;2.03;;
14994;SDS011;7593;49.006;8.372;2023-04-03T04:49:18;3.83;;;1.93;;
14994;SDS011;7593;49.006;8.372;2023-04-03T04:51:45;3.73;;;2.00;;
14994;SDS011;7593;49.006;8.372;2023-04-03T04:54:12;3.70;;;2.50;;
14994;SDS011;7593;49.006;8.372;2023-04-03T04:56:38;3.57;;;1.87;;
14994;SDS011;7593;49.006;8.372;2023-04-03T04:59:07;2.80;;;2.20;;
14994;SDS011;7593;49.006;8.372;2023-04-03T05:01:34;3.63;;;2.20;;
14994;SDS011;7593;49.006;8.372;2023-04-03T05:04:00;3.33;;;2.30;;
14994;SDS011;7593;49.006;8.372;2023-04-03T05:06:27;3.03;;;2.20;;
14994;SDS011;7593;49.006;8.372;2023-04-03T05:08:55;2.97;;;2.20;;
14994;SDS011;7593;49.006;8.372;2023-04-03T05:11:21;3.30;;;2.30;;
14994;SDS011;7593;49.006;8.372;2023-04-03T05:13:48;4.23;;;2.30;;
14994;SDS011;7593;49.006;8.372;2023-04-03T05:16:16;3.73;;;2.10;;
14994;SDS011;7593;49.006;8.372;2023-04-03T05:18:43;2.53;;;2.30;;
14994;SDS011;7593;49.006;8.372;2023-04-03T05:21:10;4.20;;;2.10;;
14994;SDS011;7593;49.006;8.372;2023-04-03T05:23:37;3.87;;;2.20;;
14994;SDS011;7593;49.006;8.372;2023-04-03T05:26:04;5.90;;;2.73;;
14994;SDS011;7593;49.006;8.372;2023-04-03T05:28:30;2.90;;;2.27;;
14994;SDS011;7593;49.006;8.372;2023-04-03T05:30:58;4.93;;;2.20;;
14994;SDS011;7593;49.006;8.372;2023-04-03T05:33:26;3.43;;;2.37;;
14994;SDS011;7593;49.006;8.372;2023-04-03T05:35:53;4.67;;;2.70;;
14994;SDS011;7593;49.006;8.372;2023-04-03T05:38:20;3.43;;;2.30;;
14994;SDS011;7593;49.006;8.372;2023-04-03T05:40:48;4.10;;;2.47;;
14994;SDS011;7593;49.006;8.372;2023-04-03T05:43:15;3.33;;;2.40;;
14994;SDS011;7593;49.006;8.372;2023-04-03T05:45:42;4.07;;;2.10;;
14994;SDS011;7593;49.006;8.372;2023-04-03T05:48:09;2.30;;;2.10;;
14994;SDS011;7593;49.006;8.372;2023-04-03T05:50:37;2.93;;;2.53;;
14994;SDS011;7593;49.006;8.372;2023-04-03T05:53:06;3.80;;;2.17;;
14994;SDS011;7593;49.006;8.372;2023-04-03T05:55:38;3.57;;;2.10;;
14994;SDS011;7593;49.006;8.372;2023-04-03T05:58:05;4.63;;;2.50;;
14994;SDS011;7593;49.006;8.372;2023-04-03T06:00:31;4.03;;;2.60;;
14994;SDS011;7593;49.006;8.372;2023-04-03T06:02:58;4.53;;;2.87;;
14994;SDS011;7593;49.006;8.372;2023-04-03T06:05:25;6.70;;;2.90;;
14994;SDS011;7593;49.006;8.372;2023-04-03T06:07:54;5.37;;;2.70;;
14994;SDS011;7593;49.006;8.372;2023-04-03T06:10:22;5.37;;;3.03;;
14994;SDS011;7593;49.006;8.372;2023-04-03T06:12:49;5.07;;;3.33;;
14994;SDS011;7593;49.006;8.372;2023-04-03T06:15:16;5.20;;;3.20;;
14994;SDS011;7593;49.006;8.372;2023-04-03T06:17:43;5.50;;;3.20;;
14994;SDS011;7593;49.006;8.372;2023-04-03T06:20:10;7.77;;;3.97;;
14994;SDS011;7593;49.006;8.372;2023-04-03T06:22:38;7.53;;;3.10;;
14994;SDS011;7593;49.006;8.372;2023-04-03T06:25:08;6.93;;;2.80;;
14994;SDS011;7593;49.006;8.372;2023-04-03T06:27:35;2.60;;;2.20;;
14994;SDS011;7593;49.006;8.372;2023-04-03T06:30:03;3.10;;;1.97;;
14994;SDS011;7593;49.006;8.372;2023-04-03T06:32:31;3.80;;;2.23;;
14994;SDS011;7593;49.006;8.372;2023-04-03T06:34:58;3.00;;;2.00;;
14994;SDS011;7593;49.006;8.372;2023-04-03T06:37:25;4.03;;;2.20;;
14994;SDS011;7593;49.006;8.372;2023-04-03T06:39:54;2.83;;;2.20;;
14994;SDS011;7593;49.006;8.372;2023-04-03T06:42:23;3.03;;;1.77;;
14994;SDS011;7593;49.006;8.372;2023-04-03T06:44:50;2.63;;;2.17;;
14994;SDS011;7593;49.006;8.372;2023-04-03T06:47:16;3.60;;;2.20;;
14994;SDS011;7593;49.006;8.372;2023-04-03T06:49:44;3.23;;;2.40;;
14994;SDS011;7593;49.006;8.372;2023-04-03T06:52:11;3.00;;;2.27;;
14994;SDS011;7593;49.006;8.372;2023-04-03T06:54:38;2.60;;;1.90;;
14994;SDS011;7593;49.006;8.372;2023-04-03T06:57:05;3.53;;;2.03;;
14994;SDS011;7593;49.006;8.372;2023-04-03T06:59:33;3.28;;;2.30;;
14994;SDS011;7593;49.006;8.372;2023-04-03T07:02:01;3.33;;;2.30;;
14994;SDS011;7593;49.006;8.372;2023-04-03T07:04:28;3.85;;;2.25;;
14994;SDS011;7593;49.006;8.372;2023-04-03T07:06:55;4.30;;;2.40;;
14994;SDS011;7593;49.006;8.372;2023-04-03T07:09:22;3.40;;;2.00;;
14994;SDS011;7593;49.006;8.372;2023-04-03T07:11:49;5.05;;;2.17;;
14994;SDS011;7593;49.006;8.372;2023-04-03T07:14:16;3.65;;;2.45;;
14994;SDS011;7593;49.006;8.372;2023-04-03T07:16:44;3.05;;;2.30;;
14994;SDS011;7593;49.006;8.372;2023-04-03T07:19:11;3.45;;;2.58;;
14994;SDS011;7593;49.006;8.372;2023-04-03T07:21:38;3.45;;;2.45;;
14994;SDS011;7593;49.006;8.372;2023-04-03T07:24:05;5.47;;;2.67;;
14994;SDS011;7593;49.006;8.372;2023-04-03T07:26:32;3.08;;;2.33;;
14994;SDS011;7593;49.006;8.372;2023-04-03T07:28:59;7.05;;;2.63;;
14994;SDS011;7593;49.006;8.372;2023-04-03T07:31:25;3.25;;;2.30;;
14994;SDS011;7593;49.006;8.372;2023-04-03T07:33:54;3.33;;;2.60;;
14994;SDS011;7593;49.006;8.372;2023-04-03T07:36:21;6.25;;;2.50;;
14994;SDS011;7593;49.006;8.372;2023-04-03T07:38:49;4.13;;;2.55;;
14994;SDS011;7593;49.006;8.372;2023-04-03T07:41:16;5.93;;;2.65;;
14994;SDS011;7593;49.006;8.372;2023-04-03T07:43:47;6.55;;;2.80;;
14994;SDS011;7593;49.006;8.372;2023-04-03T07:46:15;6.03;;;2.35;;
14994;SDS011;7593;49.006;8.372;2023-04-03T07:48:46;4.43;;;2.50;;
14994;SDS011;7593;49.006;8.372;2023-04-03T07:51:14;4.30;;;2.50;;
14994;SDS011;7593;49.006;8.372;2023-04-03T07:53:42;2.95;;;2.30;;
14994;SDS011;7593;49.006;8.372;2023-04-03T07:56:09;4.18;;;2.40;;
14994;SDS011;7593;49.006;8.372;2023-04-03T07:58:35;4.70;;;2.65;;
14994;SDS011;7593;49.006;8.372;2023-04-03T08:01:03;5.57;;;2.70;;
14994;SDS011;7593;49.006;8.372;2023-04-03T08:03:31;5.22;;;2.72;;
14994;SDS011;7593;49.006;8.372;2023-04-03T08:06:01;8.85;;;3.00;;
14994;SDS011;7593;49.006;8.372;2023-04-03T08:08:31;6.43;;;3.00;;
14994;SDS011;7593;49.006;8.372;2023-04-03T08:10:58;7.15;;;2.78;;
14994;SDS011;7593;49.006;8.372;2023-04-03T08:13:27;7.97;;;3.38;;
14994;SDS011;7593;49.006;8.372;2023-04-03T08:15:55;11.52;;;3.47;;
14994;SDS011;7593;49.006;8.372;2023-04-03T08:18:22;5.72;;;2.30;;
14994;SDS011;7593;49.006;8.372;2023-04-03T08:20:51;8.05;;;3.30;;
14994;SDS011;7593;49.006;8.372;2023-04-03T08:23:18;11.23;;;3.03;;
14994;SDS011;7593;49.006;8.372;2023-04-03T08:25:46;5.13;;;2.50;;
14994;SDS011;7593;49.006;8.372;2023-04-03T08:28:13;6.47;;;2.55;;
14994;SDS011;7593;49.006;8.372;2023-04-03T08:30:40;5.20;;;3.35;;
14994;SDS011;7593;49.006;8.372;2023-04-03T08:33:08;3.38;;;2.50;;
14994;SDS011;7593;49.006;8.372;2023-04-03T08:35:37;2.42;;;2.10;;
14994;SDS011;7593;49.006;8.372;2023-04-03T08:38:05;5.45;;;2.28;;
14994;SDS011;7593;49.006;8.372;2023-04-03T08:40:32;5.65;;;2.70;;
14994;SDS011;7593;49.006;8.372;2023-04-03T08:43:03;6.15;;;2.55;;
14994;SDS011;7593;49.006;8.372;2023-04-03T08:45:49;5.40;;;2.45;;
14994;SDS011;7593;49.006;8.372;2023-04-03T08:48:19;3.17;;;2.30;;
14994;SDS011;7593;49.006;8.372;2023-04-03T08:50:48;5.43;;;2.85;;
14994;SDS011;7593;49.006;8.372;2023-04-03T08:53:20;3.90;;;2.50;;
14994;SDS011;7593;49.006;8.372;2023-04-03T08:55:52;5.75;;;2.45;;
14994;SDS011;7593;49.006;8.372;2023-04-03T08:58:22;4.32;;;2.75;;
14994;SDS011;7593;49.006;8.372;2023-04-03T09:00:53;3.63;;;2.42;;
14994;SDS011;7593;49.006;8.372;2023-04-03T09:03:23;6.22;;;2.53;;
14994;SDS011;7593;49.006;8.372;2023-04-03T09:05:52;7.28;;;2.25;;
14994;SDS011;7593;49.006;8.372;2023-04-03T09:08:22;3.70;;;2.17;;
14994;SDS011;7593;49.006;8.372;2023-04-03T09:10:53;4.03;;;2.13;;
14994;SDS011;7593;49.006;8.372;2023-04-03T09:13:32;4.80;;;2.17;;
14994;SDS011;7593;49.006;8.372;2023-04-03T09:16:04;4.95;;;1.98;;
14994;SDS011;7593;49.006;8.372;2023-04-03T09:18:44;6.38;;;2.30;;
14994;SDS011;7593;49.006;8.372;2023-04-03T09:21:17;4.82;;;2.15;;
14994;SDS011;7593;49.006;8.372;2023-04-03T09:23:51;5.72;;;2.35;;
14994;SDS011;7593;49.006;8.372;2023-04-03T09:26:21;6.18;;;2.40;;
14994;SDS011;7593;49.006;8.372;2023-04-03T09:28:53;10.43;;;2.53;;
14994;SDS011;7593;49.006;8.372;2023-04-03T09:31:22;4.35;;;2.20;;
14994;SDS011;7593;49.006;8.372;2023-04-03T09:33:52;2.97;;;1.90;;
14994;SDS011;7593;49.006;8.372;2023-04-03T09:36:37;4.28;;;2.35;;
14994;SDS011;7593;49.006;8.372;2023-04-03T09:39:10;2.33;;;1.75;;
14994;SDS011;7593;49.006;8.372;2023-04-03T09:41:38;4.15;;;1.88;;
14994;SDS011;7593;49.006;8.372;2023-04-03T09:44:18;3.53;;;1.77;;
14994;SDS011;7593;49.006;8.372;2023-04-03T09:46:48;3.40;;;1.70;;
14994;SDS011;7593;49.006;8.372;2023-04-03T09:49:16;3.75;;;1.80;;
14994;SDS011;7593;49.006;8.372;2023-04-03T09:51:44;2.08;;;1.70;;
14994;SDS011;7593;49.006;8.372;2023-04-03T09:54:24;4.15;;;2.00;;
14994;SDS011;7593;49.006;8.372;2023-04-03T09:57:06;3.45;;;1.80;;
14994;SDS011;7593;49.006;8.372;2023-04-03T09:59:38;5.82;;;2.08;;
14994;SDS011;7593;49.006;8.372;2023-04-03T10:02:24;4.65;;;1.90;;
14994;SDS011;7593;49.006;8.372;2023-04-03T10:04:58;3.17;;;1.70;;
14994;SDS011;7593;49.006;8.372;2023-04-03T10:07:26;3.03;;;1.73;;
14994;SDS011;7593;49.006;8.372;2023-04-03T10:09:57;2.42;;;1.60;;
14994;SDS011;7593;49.006;8.372;2023-04-03T10:12:28;2.20;;;1.60;;
14994;SDS011;7593;49.006;8.372;2023-04-03T10:14:57;3.83;;;1.80;;
14994;SDS011;7593;49.006;8.372;2023-04-03T10:20:19;5.95;;;2.10;;
14994;SDS011;7593;49.006;8.372;2023-04-03T10:22:56;2.75;;;1.70;;
14994;SDS011;7593;49.006;8.372;2023-04-03T10:25:42;2.35;;;1.70;;
14994;SDS011;7593;49.006;8.372;2023-04-03T10:28:17;3.30;;;1.88;;
14994;SDS011;7593;49.006;8.372;2023-04-03T10:30:53;5.40;;;2.10;;
14994;SDS011;7593;49.006;8.372;2023-04-03T10:33:36;3.15;;;1.65;;
14994;SDS011;7593;49.006;8.372;2023-04-03T10:36:14;3.70;;;1.80;;
14994;SDS011;7593;49.006;8.372;2023-04-03T10:38:50;2.33;;;1.50;;
14994;SDS011;7593;49.006;8.372;2023-04-03T10:41:22;3.03;;;1.80;;
14994;SDS011;7593;49.006;8.372;2023-04-03T10:43:56;2.10;;;1.40;;
14994;SDS011;7593;49.006;8.372;2023-04-03T10:46:35;1.90;;;1.67;;
14994;SDS011;7593;49.006;8.372;2023-04-03T10:49:13;1.75;;;1.40;;
14994;SDS011;7593;49.006;8.372;2023-04-03T10:51:49;2.30;;;1.50;;
14994;SDS011;7593;49.006;8.372;2023-04-03T10:54:26;5.10;;;1.70;;
14994;SDS011;7593;49.006;8.372;2023-04-03T10:57:00;3.58;;;1.70;;
14994;SDS011;7593;49.006;8.372;2023-04-03T10:59:30;3.55;;;1.70;;
14994;SDS011;7593;49.006;8.372;2023-04-03T11:02:01;1.75;;;1.38;;
14994;SDS011;7593;49.006;8.372;2023-04-03T11:04:34;3.15;;;1.52;;
14994;SDS011;7593;49.006;8.372;2023-04-03T11:07:04;3.60;;;1.63;;
14994;SDS011;7593;49.006;8.372;2023-04-03T11:09:37;2.95;;;1.88;;
14994;SDS011;7593;49.006;8.372;2023-04-03T11:12:09;2.55;;;1.70;;
14994;SDS011;7593;49.006;8.372;2023-04-03T11:14:38;4.50;;;1.80;;
14994;SDS011;7593;49.006;8.372;2023-04-03T11:17:15;2.60;;;1.60;;
14994;SDS011;7593;49.006;8.372;2023-04-03T11:19:50;2.65;;;1.63;;
14994;SDS011;7593;49.006;8.372;2023-04-03T11:22:26;2.80;;;1.83;;
14994;SDS011;7593;49.006;8.372;2023-04-03T11:24:58;2.63;;;1.70;;
14994;SDS011;7593;49.006;8.372;2023-04-03T11:27:30;3.55;;;1.63;;
14994;SDS011;7593;49.006;8.372;2023-04-03T11:30:01;3.22;;;1.63;;
14994;SDS011;7593;49.006;8.372;2023-04-03T11:32:36;1.85;;;1.33;;
14994;SDS011;7593;49.006;8.372;2023-04-03T11:35:18;4.50;;;1.77;;
14994;SDS011;7593;49.006;8.372;2023-04-03T11:37:47;2.67;;;1.77;;
14994;SDS011;7593;49.006;8.372;2023-04-03T11:40:21;3.58;;;1.77;;
14994;SDS011;7593;49.006;8.372;2023-04-03T11:42:52;4.35;;;1.67;;
14994;SDS011;7593;49.006;8.372;2023-04-03T12:09:33;2.60;;;1.63;;
14994;SDS011;7593;49.006;8.372;2023-04-03T12:12:29;3.90;;;2.03;;
14994;SDS011;7593;49.006;8.372;2023-04-03T12:15:21;3.28;;;1.83;;
14994;SDS011;7593;49.006;8.372;2023-04-03T12:17:50;2.67;;;1.52;;
14994;SDS011;7593;49.006;8.372;2023-04-03T12:23:27;4.35;;;1.65;;
14994;SDS011;7593;49.006;8.372;2023-04-03T12:26:04;2.53;;;1.73;;
14994;SDS011;7593;49.006;8.372;2023-04-03T12:28:46;6.90;;;2.03;;
14994;SDS011;7593;49.006;8.372;2023-04-03T12:31:15;3.28;;;1.85;;
14994;SDS011;7593;49.006;8.372;2023-04-03T12:33:58;2.83;;;1.83;;
14994;SDS011;7593;49.006;8.372;2023-04-03T12:36:34;2.22;;;1.75;;
14994;SDS011;7593;49.006;8.372;2023-04-03T12:39:13;2.63;;;1.70;;
14994;SDS011;7593;49.006;8.372;2023-04-03T12:42:12;2.33;;;1.63;;
14994;SDS011;7593;49.006;8.372;2023-04-03T12:44:52;3.85;;;1.80;;
14994;SDS011;7593;49.006;8.372;2023-04-03T12:47:27;4.40;;;1.95;;
14994;SDS011;7593;49.006;8.372;2023-04-03T12:49:57;2.10;;;1.70;;
14994;SDS011;7593;49.006;8.372;2023-04-03T12:52:32;2.78;;;2.00;;
14994;SDS011;7593;49.006;8.372;2023-04-03T12:55:11;2.80;;;1.80;;
14994;SDS011;7593;49.006;8.372;2023-04-03T12:57:41;2.45;;;1.70;;
14994;SDS011;7593;49.006;8.372;2023-04-03T13:02:58;3.42;;;1.80;;
14994;SDS011;7593;49.006;8.372;2023-04-03T13:05:26;4.70;;;1.80;;
14994;SDS011;7593;49.006;8.372;2023-04-03T13:07:56;2.97;;;2.00;;
14994;SDS011;7593;49.006;8.372;2023-04-03T13:10:29;2.83;;;1.80;;
14994;SDS011;7593;49.006;8.372;2023-04-03T13:12:57;2.70;;;1.90;;
14994;SDS011;7593;49.006;8.372;2023-04-03T13:15:40;4.22;;;1.80;;
14994;SDS011;7593;49.006;8.372;2023-04-03T13:18:20;3.05;;;1.90;;
14994;SDS011;7593;49.006;8.372;2023-04-03T13:20:48;2.63;;;2.10;;
14994;SDS011;7593;49.006;8.372;2023-04-03T13:23:16;3.25;;;1.83;;
14994;SDS011;7593;49.006;8.372;2023-04-03T13:25:49;2.22;;;2.00;;
14994;SDS011;7593;49.006;8.372;2023-04-03T13:28:18;4.88;;;2.15;;
14994;SDS011;7593;49.006;8.372;2023-04-03T13:30:55;2.67;;;1.90;;
14994;SDS011;7593;49.006;8.372;2023-04-03T13:33:26;3.97;;;2.25;;
14994;SDS011;7593;49.006;8.372;2023-04-03T13:35:57;3.05;;;1.88;;
14994;SDS011;7593;49.006;8.372;2023-04-03T13:38:28;2.85;;;2.00;;
14994;SDS011;7593;49.006;8.372;2023-04-03T13:41:01;4.82;;;2.30;;
14994;SDS011;7593;49.006;8.372;2023-04-03T13:43:30;3.50;;;2.20;;
14994;SDS011;7593;49.006;8.372;2023-04-03T13:45:59;4.07;;;2.10;;
14994;SDS011;7593;49.006;8.372;2023-04-03T13:48:38;3.50;;;1.60;;
14994;SDS011;7593;49.006;8.372;2023-04-03T13:51:17;4.35;;;1.92;;
14994;SDS011;7593;49.006;8.372;2023-04-03T13:53:47;3.05;;;1.73;;
14994;SDS011;7593;49.006;8.372;2023-04-03T13:56:21;21.88;;;2.78;;
14994;SDS011;7593;49.006;8.372;2023-04-03T13:58:53;9.40;;;2.55;;
14994;SDS011;7593;49.006;8.372;2023-04-03T14:01:32;8.73;;;2.22;;
14994;SDS011;7593;49.006;8.372;2023-04-03T14:04:09;3.13;;;1.80;;
14994;SDS011;7593;49.006;8.372;2023-04-03T14:06:38;3.28;;;2.20;;
14994;SDS011;7593;49.006;8.372;2023-04-03T14:09:05;2.08;;;1.77;;
14994;SDS011;7593;49.006;8.372;2023-04-03T14:11:34;4.90;;;1.90;;
14994;SDS011;7593;49.006;8.372;2023-04-03T14:14:01;4.22;;;2.10;;
14994;SDS011;7593;49.006;8.372;2023-04-03T14:16:32;4.53;;;2.35;;
14994;SDS011;7593;49.006;8.372;2023-04-03T14:19:03;5.88;;;2.28;;
14994;SDS011;7593;49.006;8.372;2023-04-03T14:21:30;2.75;;;2.20;;
14994;SDS011;7593;49.006;8.372;2023-04-03T14:23:57;6.63;;;2.20;;
14994;SDS011;7593;49.006;8.372;2023-04-03T14:26:24;2.53;;;1.90;;
14994;SDS011;7593;49.006;8.372;2023-04-03T14:28:54;3.97;;;1.80;;
14994;SDS011;7593;49.006;8.372;2023-04-03T14:31:21;4.03;;;2.10;;
14994;SDS011;7593;49.006;8.372;2023-04-03T14:33:49;3.67;;;2.33;;
14994;SDS011;7593;49.006;8.372;2023-04-03T14:36:17;5.85;;;2.20;;
14994;SDS011;7593;49.006;8.372;2023-04-03T14:38:46;3.72;;;2.03;;
14994;SDS011;7593;49.006;8.372;2023-04-03T14:41:15;3.58;;;2.00;;
14994;SDS011;7593;49.006;8.372;2023-04-03T14:43:43;4.25;;;2.10;;
14994;SDS011;7593;49.006;8.372;2023-04-03T14:46:14;5.55;;;2.22;;
14994;SDS011;7593;49.006;8.372;2023-04-03T14:48:42;5.40;;;2.60;;
14994;SDS011;7593;49.006;8.372;2023-04-03T14:51:10;2.15;;;1.83;;
14994;SDS011;7593;49.006;8.372;2023-04-03T14:53:37;2.47;;;1.80;;
14994;SDS011;7593;49.006;8.372;2023-04-03T14:56:09;4.30;;;1.90;;
14994;SDS011;7593;49.006;8.372;2023-04-03T14:58:38;2.22;;;1.80;;
14994;SDS011;7593;49.006;8.372;2023-04-03T15:01:05;3.25;;;1.83;;
14994;SDS011;7593;49.006;8.372;2023-04-03T15:03:33;3.63;;;1.65;;
14994;SDS011;7593;49.006;8.372;2023-04-03T15:05:59;2.78;;;2.20;;
14994;SDS011;7593;49.006;8.372;2023-04-03T15:08:27;4.28;;;2.13;;
14994;SDS011;7593;49.006;8.372;2023-04-03T15:10:55;4.55;;;2.08;;
14994;SDS011;7593;49.006;8.372;2023-04-03T15:13:23;2.90;;;1.90;;
14994;SDS011;7593;49.006;8.372;2023-04-03T15:15:51;3.83;;;1.83;;
14994;SDS011;7593;49.006;8.372;2023-04-03T15:18:21;1.80;;;1.60;;
14994;SDS011;7593;49.006;8.372;2023-04-03T15:20:52;3.40;;;1.88;;
14994;SDS011;7593;49.006;8.372;2023-04-03T15:23:20;4.82;;;2.58;;
14994;SDS011;7593;49.006;8.372;2023-04-03T15:25:51;3.35;;;2.42;;
14994;SDS011;7593;49.006;8.372;2023-04-03T15:28:19;2.97;;;2.08;;
14994;SDS011;7593;49.006;8.372;2023-04-03T15:30:50;2.00;;;1.67;;
14994;SDS011;7593;49.006;8.372;2023-04-03T15:33:17;4.90;;;1.92;;
14994;SDS011;7593;49.006;8.372;2023-04-03T15:35:44;2.20;;;1.80;;
14994;SDS011;7593;49.006;8.372;2023-04-03T15:38:12;1.98;;;1.77;;
14994;SDS011;7593;49.006;8.372;2023-04-03T15:40:39;4.82;;;1.90;;
14994;SDS011;7593;49.006;8.372;2023-04-03T15:43:06;4.55;;;2.08;;
14994;SDS011;7593;49.006;8.372;2023-04-03T15:45:33;3.50;;;1.83;;
14994;SDS011;7593;49.006;8.372;2023-04-03T15:48:02;4.47;;;2.08;;
14994;SDS011;7593;49.006;8.372;2023-04-03T15:50:30;3.10;;;2.20;;